createdAt,value
2023-04-09T00:00:12.802Z,30.80
2023-04-09T00:02:39.793Z,31.58
2023-04-09T00:05:07.505Z,30.40
2023-04-09T00:07:34.556Z,29.80
2023-04-09T00:10:01.476Z,30.38
2023-04-09T00:12:30.219Z,31.52
2023-04-09T00:14:57.731Z,30.98
2023-04-09T00:17:24.622Z,30.95
2023-04-09T00:19:52.146Z,31.42
2023-04-09T00:22:18.938Z,30.38
2023-04-09T00:24:45.675Z,30.70
2023-04-09T00:27:12.441Z,31.08
2023-04-09T00:29:39.156Z,31.55
2023-04-09T00:32:06.309Z,29.92
2023-04-09T00:34:33.134Z,29.88
2023-04-09T00:36:59.971Z,30.88
2023-04-09T00:39:26.743Z,30.85
2023-04-09T00:41:58.598Z,30.98
2023-04-09T00:44:25.788Z,30.85
2023-04-09T00:46:53.972Z,30.02
2023-04-09T00:49:21.538Z,30.23
2023-04-09T00:51:48.907Z,29.92
2023-04-09T00:54:16.292Z,31.75
2023-04-09T00:56:43.884Z,29.85
2023-04-09T00:59:10.725Z,29.38
2023-04-09T01:01:37.574Z,28.88
2023-04-09T01:04:04.930Z,30.35
2023-04-09T01:07:30.191Z,29.45
2023-04-09T01:10:15.059Z,31.27
2023-04-09T01:13:09.052Z,28.67
2023-04-09T01:15:42.255Z,30.55
2023-04-09T01:18:13.657Z,29.92
2023-04-09T01:20:43.746Z,30.55
2023-04-09T01:23:10.625Z,29.50
2023-04-09T01:25:58.589Z,28.48
2023-04-09T01:28:32.537Z,29.98
2023-04-09T01:31:09.297Z,28.38
2023-04-09T01:33:38.425Z,29.60
2023-04-09T01:36:07.232Z,28.90
2023-04-09T01:38:36.308Z,32.97
2023-04-09T01:41:05.391Z,33.42
2023-04-09T01:43:33.631Z,31.50
2023-04-09T01:46:03.430Z,32.38
2023-04-09T01:48:31.466Z,32.10
2023-04-09T01:50:59.105Z,30.63
2023-04-09T01:53:28.578Z,32.08
2023-04-09T01:55:58.333Z,30.85
2023-04-09T01:58:26.611Z,31.13
2023-04-09T02:01:00.232Z,34.05
2023-04-09T02:03:34.090Z,32.90
2023-04-09T02:06:17.365Z,33.42
2023-04-09T02:08:46.893Z,33.42
2023-04-09T02:11:15.073Z,33.40
2023-04-09T02:13:44.129Z,36.53
2023-04-09T02:16:13.238Z,37.53
2023-04-09T02:18:40.096Z,35.60
2023-04-09T02:21:07.369Z,34.55
2023-04-09T02:23:35.003Z,35.65
2023-04-09T02:26:01.885Z,37.28
2023-04-09T02:28:28.690Z,36.42
2023-04-09T02:30:55.488Z,33.85
2023-04-09T02:33:22.480Z,36.75
2023-04-09T02:35:49.264Z,37.17
2023-04-09T02:38:16.108Z,37.53
2023-04-09T02:40:43.171Z,35.58
2023-04-09T02:43:10.844Z,38.20
2023-04-09T02:45:37.653Z,36.75
2023-04-09T02:48:04.487Z,35.88
2023-04-09T02:50:31.252Z,36.63
2023-04-09T02:52:58.109Z,36.78
2023-04-09T02:55:25.089Z,36.38
2023-04-09T02:57:51.824Z,38.05
2023-04-09T03:00:18.520Z,36.08
2023-04-09T03:02:45.373Z,36.55
2023-04-09T03:05:12.167Z,34.92
2023-04-09T03:07:39.139Z,40.22
2023-04-09T03:10:06.459Z,37.95
2023-04-09T03:12:33.200Z,38.80
2023-04-09T03:14:59.898Z,36.83
2023-04-09T03:17:27.229Z,35.38
2023-04-09T03:19:54.332Z,39.42
2023-04-09T03:22:21.045Z,39.70
2023-04-09T03:24:48.013Z,37.83
2023-04-09T03:27:14.931Z,38.60
2023-04-09T03:29:41.639Z,37.17
2023-04-09T03:32:08.326Z,38.88
2023-04-09T03:34:35.487Z,37.50
2023-04-09T03:37:02.350Z,39.78
2023-04-09T03:39:30.900Z,37.40
2023-04-09T03:41:58.915Z,36.95
2023-04-09T03:44:26.143Z,36.40
2023-04-09T03:46:53.041Z,38.00
2023-04-09T03:49:19.850Z,37.00
2023-04-09T03:51:46.618Z,36.67
2023-04-09T03:54:13.557Z,37.40
2023-04-09T03:56:40.387Z,36.33
2023-04-09T03:59:07.109Z,35.97
2023-04-09T04:01:34.937Z,37.00
2023-04-09T04:04:02.016Z,36.70
2023-04-09T04:06:28.759Z,35.67
2023-04-09T04:08:55.604Z,35.08
2023-04-09T04:11:22.274Z,35.97
2023-04-09T04:13:49.017Z,36.63
2023-04-09T04:16:15.758Z,37.38
2023-04-09T04:18:42.482Z,35.60
2023-04-09T04:21:16.495Z,35.65
2023-04-09T04:23:43.287Z,36.63
2023-04-09T04:26:11.153Z,36.17
2023-04-09T04:28:38.863Z,36.15
2023-04-09T04:31:12.469Z,35.63
2023-04-09T04:33:40.668Z,35.72
2023-04-09T04:36:08.964Z,37.20
2023-04-09T04:38:36.501Z,36.20
2023-04-09T04:41:03.469Z,36.63
2023-04-09T04:43:30.240Z,35.55
2023-04-09T04:45:56.980Z,37.03
2023-04-09T04:48:23.874Z,36.88
2023-04-09T04:50:58.714Z,35.85
2023-04-09T04:53:25.694Z,37.47
2023-04-09T04:55:52.627Z,37.05
2023-04-09T04:58:19.796Z,36.30
2023-04-09T05:00:47.030Z,37.63
2023-04-09T05:03:14.508Z,37.78
2023-04-09T05:05:41.366Z,38.55
2023-04-09T05:08:08.115Z,36.08
2023-04-09T05:10:34.981Z,37.42
2023-04-09T05:13:01.646Z,38.08
2023-04-09T05:15:28.364Z,37.78
2023-04-09T05:17:55.220Z,38.15
2023-04-09T05:20:22.058Z,38.55
2023-04-09T05:22:48.788Z,37.97
2023-04-09T05:25:16.308Z,36.47
2023-04-09T05:27:43.291Z,37.58
2023-04-09T05:30:10.541Z,37.90
2023-04-09T05:32:37.490Z,37.30
2023-04-09T05:35:04.829Z,37.70
2023-04-09T05:37:31.635Z,36.47
2023-04-09T05:39:58.365Z,36.92
2023-04-09T05:42:25.088Z,37.83
2023-04-09T05:44:51.811Z,37.60
2023-04-09T05:47:18.488Z,37.92
2023-04-09T05:49:45.169Z,38.58
2023-04-09T05:52:11.888Z,39.22
2023-04-09T05:54:38.583Z,37.45
2023-04-09T05:57:05.225Z,38.22
2023-04-09T05:59:32.036Z,36.22
2023-04-09T06:01:58.751Z,38.03
2023-04-09T06:04:25.596Z,36.67
2023-04-09T06:06:52.402Z,37.15
2023-04-09T06:09:19.085Z,38.00
2023-04-09T06:11:45.810Z,38.97
2023-04-09T06:14:16.354Z,38.60
2023-04-09T06:16:43.102Z,38.33
2023-04-09T06:19:09.834Z,37.92
2023-04-09T06:21:36.552Z,35.92
2023-04-09T06:24:03.324Z,36.88
2023-04-09T06:26:30.376Z,36.95
2023-04-09T06:28:57.075Z,36.25
2023-04-09T06:31:23.831Z,35.90
2023-04-09T06:33:51.045Z,35.47
2023-04-09T06:36:18.085Z,36.28
2023-04-09T06:38:44.793Z,36.53
2023-04-09T06:41:12.741Z,36.10
2023-04-09T06:43:39.509Z,36.78
2023-04-09T06:46:06.319Z,35.10
2023-04-09T06:48:33.140Z,35.00
2023-04-09T06:50:59.925Z,37.47
2023-04-09T06:53:26.648Z,36.05
2023-04-09T06:55:55.451Z,37.00
2023-04-09T06:58:23.400Z,35.50
2023-04-09T07:00:50.288Z,35.60
2023-04-09T07:03:17.103Z,35.60
2023-04-09T07:05:44.019Z,36.20
2023-04-09T07:08:11.678Z,36.00
2023-04-09T07:10:38.526Z,34.50
2023-04-09T07:13:05.370Z,35.67
2023-04-09T07:15:32.162Z,37.03
2023-04-09T07:17:58.958Z,37.28
2023-04-09T07:20:25.725Z,36.42
2023-04-09T07:22:52.571Z,36.72
2023-04-09T07:25:19.421Z,37.75
2023-04-09T07:27:46.183Z,37.15
2023-04-09T07:30:13.028Z,35.95
2023-04-09T07:32:40.013Z,36.88
2023-04-09T07:35:09.648Z,38.22
2023-04-09T07:37:36.457Z,39.70
2023-04-09T07:40:04.046Z,40.75
2023-04-09T07:42:31.050Z,42.78
2023-04-09T07:44:57.719Z,40.65
2023-04-09T07:47:24.743Z,40.28
2023-04-09T07:49:51.783Z,42.17
2023-04-09T07:52:19.577Z,42.00
2023-04-09T07:54:46.307Z,44.08
2023-04-09T07:57:13.077Z,45.40
2023-04-09T07:59:39.885Z,45.92
2023-04-09T08:02:07.543Z,45.47
2023-04-09T08:04:34.391Z,45.55
2023-04-09T08:07:01.080Z,46.28
2023-04-09T08:09:27.797Z,46.30
2023-04-09T08:11:54.640Z,46.92
2023-04-09T08:14:21.401Z,47.22
2023-04-09T08:16:50.318Z,47.65
2023-04-09T08:19:18.180Z,47.08
2023-04-09T08:21:44.980Z,47.78
2023-04-09T08:24:12.205Z,47.70
2023-04-09T08:26:40.535Z,48.95
2023-04-09T08:29:08.354Z,50.75
2023-04-09T08:31:36.608Z,49.80
2023-04-09T08:34:03.640Z,46.80
2023-04-09T08:36:31.794Z,49.90
2023-04-09T08:39:00.525Z,49.65
2023-04-09T08:41:29.384Z,47.22
2023-04-09T08:43:58.773Z,46.97
2023-04-09T08:46:27.233Z,47.85
2023-04-09T08:48:54.476Z,47.55
2023-04-09T08:51:24.759Z,48.38
2023-04-09T08:54:04.406Z,49.55
2023-04-09T08:56:31.905Z,49.05
2023-04-09T08:58:58.873Z,47.53
2023-04-09T09:01:27.740Z,47.95
2023-04-09T09:03:55.715Z,46.42
2023-04-09T09:06:30.117Z,45.65
2023-04-09T09:09:06.605Z,45.20
2023-04-09T09:11:41.578Z,47.55
2023-04-09T09:14:19.220Z,45.83
2023-04-09T09:16:58.274Z,47.85
2023-04-09T09:19:25.048Z,45.65
2023-04-09T09:22:02.082Z,46.55
2023-04-09T09:24:29.605Z,44.10
2023-04-09T09:26:57.434Z,45.90
2023-04-09T09:29:24.746Z,46.40
2023-04-09T09:31:53.374Z,43.83
2023-04-09T09:34:21.487Z,46.67
2023-04-09T09:36:48.755Z,43.55
2023-04-09T09:39:17.624Z,45.85
2023-04-09T09:41:46.349Z,45.58
2023-04-09T09:44:30.602Z,46.38
2023-04-09T09:46:58.762Z,45.17
2023-04-09T09:49:25.516Z,46.75
2023-04-09T09:51:56.550Z,46.72
2023-04-09T09:54:25.638Z,47.53
2023-04-09T09:56:55.804Z,46.15
2023-04-09T09:59:32.024Z,48.10
2023-04-09T10:02:02.867Z,47.80
2023-04-09T10:04:32.907Z,48.45
2023-04-09T10:07:02.523Z,47.20
2023-04-09T10:09:29.342Z,48.45
2023-04-09T10:11:57.981Z,49.10
2023-04-09T10:14:26.048Z,51.42
2023-04-09T10:16:53.294Z,53.92
2023-04-09T10:19:20.646Z,51.45
2023-04-09T10:22:16.134Z,51.83
2023-04-09T10:24:43.488Z,52.20
2023-04-09T10:27:12.112Z,53.13
2023-04-09T10:29:45.671Z,50.58
2023-04-09T10:32:13.458Z,50.28
2023-04-09T10:34:42.374Z,51.80
2023-04-09T10:37:13.816Z,51.75
2023-04-09T10:39:44.330Z,51.17
2023-04-09T10:42:17.842Z,50.95
2023-04-09T10:44:44.632Z,52.72
2023-04-09T10:47:12.244Z,53.13
2023-04-09T10:49:40.945Z,49.97
2023-04-09T10:52:12.023Z,50.08
2023-04-09T10:54:44.036Z,50.90
2023-04-09T10:59:42.837Z,50.80
2023-04-09T11:02:18.160Z,49.67
2023-04-09T11:05:26.388Z,49.42
2023-04-09T11:08:12.412Z,49.85
2023-04-09T11:10:58.209Z,49.85
2023-04-09T11:13:25.682Z,49.88
2023-04-09T11:15:52.799Z,48.90
2023-04-09T11:18:27.436Z,50.75
2023-04-09T11:21:01.924Z,49.58
2023-04-09T11:23:29.095Z,49.95
2023-04-09T11:25:56.494Z,48.47
2023-04-09T11:28:24.430Z,48.03
2023-04-09T11:30:52.107Z,48.40
2023-04-09T11:33:20.204Z,47.42
2023-04-09T11:35:47.952Z,47.17
2023-04-09T11:38:14.820Z,47.38
2023-04-09T11:40:49.821Z,50.03
2023-04-09T11:43:17.650Z,48.30
2023-04-09T11:45:48.056Z,47.55
2023-04-09T11:48:18.010Z,49.97
2023-04-09T11:50:44.946Z,47.67
2023-04-09T11:53:22.841Z,46.78
2023-04-09T11:55:53.606Z,48.50
2023-04-09T11:58:25.539Z,46.27
2023-04-09T12:00:58.013Z,44.10
2023-04-09T12:03:34.991Z,43.28
2023-04-09T12:06:02.909Z,45.42
2023-04-09T12:08:31.203Z,43.95
2023-04-09T12:11:07.348Z,42.30
2023-04-09T12:13:34.243Z,43.08
2023-04-09T12:16:01.466Z,41.50
2023-04-09T12:18:28.282Z,43.40
2023-04-09T12:20:54.983Z,41.55
2023-04-09T12:23:21.715Z,41.35
2023-04-09T12:25:48.453Z,42.33
2023-04-09T12:28:17.949Z,41.60
2023-04-09T12:30:45.267Z,41.58
2023-04-09T12:33:12.171Z,41.65
2023-04-09T12:35:39.188Z,41.30
2023-04-09T12:38:06.106Z,40.83
2023-04-09T12:40:32.989Z,40.80
2023-04-09T12:42:59.813Z,42.28
2023-04-09T12:45:27.790Z,42.60
2023-04-09T12:47:54.503Z,40.22
2023-04-09T12:50:21.283Z,39.38
2023-04-09T12:52:48.109Z,38.47
2023-04-09T12:55:15.697Z,38.47
2023-04-09T12:57:47.051Z,38.38
2023-04-09T13:02:41.591Z,37.67
2023-04-09T13:05:08.639Z,38.15
2023-04-09T13:07:35.438Z,38.28
2023-04-09T13:10:02.202Z,37.47
2023-04-09T13:12:28.956Z,36.67
2023-04-09T13:14:56.589Z,37.03
2023-04-09T13:17:23.470Z,35.17
2023-04-09T13:19:51.379Z,37.28
2023-04-09T13:22:19.003Z,34.60
2023-04-09T13:24:45.888Z,34.72
2023-04-09T13:27:12.607Z,33.60
2023-04-09T13:29:39.368Z,33.95
2023-04-09T13:32:10.782Z,33.67
2023-04-09T13:37:05.402Z,33.22
2023-04-09T13:39:32.195Z,32.63
2023-04-09T13:41:59.677Z,32.53
2023-04-09T13:44:26.868Z,32.25
2023-04-09T13:46:53.583Z,31.30
2023-04-09T13:49:21.090Z,32.10
2023-04-09T13:51:50.173Z,32.10
2023-04-09T13:54:17.504Z,31.08
2023-04-09T13:56:46.040Z,30.33
2023-04-09T13:59:12.803Z,30.02
2023-04-09T14:01:39.667Z,29.60
2023-04-09T14:04:06.623Z,31.63
2023-04-09T14:06:33.403Z,29.58
2023-04-09T14:09:00.887Z,28.08
2023-04-09T14:11:27.614Z,27.45
2023-04-09T14:13:55.474Z,27.45
2023-04-09T14:16:22.512Z,27.27
2023-04-09T14:18:49.280Z,27.60
2023-04-09T14:21:16.598Z,27.23
2023-04-09T14:23:43.380Z,26.90
2023-04-09T14:26:10.513Z,27.58
2023-04-09T14:28:37.937Z,26.05
2023-04-09T14:31:05.408Z,25.90
2023-04-09T14:33:32.155Z,25.70
2023-04-09T14:35:59.125Z,25.27
2023-04-09T14:38:25.951Z,24.60
2023-04-09T14:40:53.011Z,22.92
2023-04-09T14:43:19.711Z,22.65
2023-04-09T14:45:46.499Z,21.55
2023-04-09T14:48:13.204Z,21.30
2023-04-09T14:50:39.931Z,20.27
2023-04-09T14:53:06.654Z,19.77
2023-04-09T14:55:33.436Z,19.92
2023-04-09T14:58:03.598Z,19.67
2023-04-09T15:00:31.462Z,19.05
2023-04-09T15:02:58.532Z,18.25
2023-04-09T15:05:25.510Z,19.50
2023-04-09T15:07:54.390Z,18.05
2023-04-09T15:10:21.326Z,19.35
2023-04-09T15:12:48.041Z,21.20
2023-04-09T15:15:14.788Z,19.90
2023-04-09T15:17:41.631Z,20.65
2023-04-09T15:20:08.655Z,19.50
2023-04-09T15:22:35.640Z,20.13
2023-04-09T15:25:02.385Z,19.83
2023-04-09T15:27:29.152Z,19.20
2023-04-09T15:29:55.866Z,18.50
2023-04-09T15:32:22.696Z,18.50
2023-04-09T15:34:50.246Z,19.15
2023-04-09T15:37:16.974Z,17.73
2023-04-09T15:39:43.755Z,19.08
2023-04-09T15:42:11.651Z,17.90
2023-04-09T15:44:40.525Z,18.58
2023-04-09T15:47:07.685Z,17.90
2023-04-09T15:49:36.756Z,18.67
2023-04-09T15:52:03.948Z,19.08
2023-04-09T15:54:31.027Z,16.50
2023-04-09T15:56:57.743Z,16.70
2023-04-09T15:59:24.514Z,16.52
2023-04-09T16:01:52.092Z,16.10
2023-04-09T16:04:18.868Z,16.45
2023-04-09T16:06:45.670Z,16.38
2023-04-09T16:09:12.359Z,18.02
2023-04-09T16:11:39.220Z,17.35
2023-04-09T16:14:06.038Z,17.33
2023-04-09T16:16:32.852Z,16.80
2023-04-09T16:19:01.035Z,16.92
2023-04-09T16:21:28.179Z,17.52
2023-04-09T16:23:54.909Z,16.00
2023-04-09T16:26:21.742Z,15.25
2023-04-09T16:28:48.952Z,15.98
2023-04-09T16:31:15.975Z,15.73
2023-04-09T16:33:42.736Z,15.48
2023-04-09T16:36:09.468Z,14.73
2023-04-09T16:38:36.501Z,15.88
2023-04-09T16:41:03.240Z,16.02
2023-04-09T16:43:30.274Z,16.60
2023-04-09T16:45:57.172Z,16.73
2023-04-09T16:48:24.120Z,16.02
2023-04-09T16:50:50.844Z,15.95
2023-04-09T16:53:17.643Z,16.33
2023-04-09T16:55:44.904Z,15.25
2023-04-09T16:58:11.678Z,15.73
2023-04-09T17:00:39.979Z,16.27
2023-04-09T17:03:06.943Z,16.35
2023-04-09T17:05:34.650Z,16.55
2023-04-09T17:08:01.366Z,16.35
2023-04-09T17:10:28.154Z,16.73
2023-04-09T17:12:55.116Z,16.65
2023-04-09T17:15:22.764Z,17.00
2023-04-09T17:17:52.347Z,16.38
2023-04-09T17:20:20.880Z,16.17
2023-04-09T17:22:47.662Z,15.18
2023-04-09T17:25:14.405Z,15.38
2023-04-09T17:27:43.646Z,16.38
2023-04-09T17:30:11.080Z,16.13
2023-04-09T17:32:39.430Z,16.85
2023-04-09T17:35:07.530Z,16.88
2023-04-09T17:37:34.781Z,17.30
2023-04-09T17:40:05.355Z,17.25
2023-04-09T17:42:32.099Z,17.60
2023-04-09T17:44:59.026Z,17.05
2023-04-09T17:47:25.972Z,15.93
2023-04-09T17:49:52.803Z,16.40
2023-04-09T17:52:20.478Z,17.13
2023-04-09T17:54:47.279Z,16.15
2023-04-09T17:57:14.001Z,16.38
2023-04-09T17:59:41.024Z,16.33
2023-04-09T18:02:08.044Z,16.85
2023-04-09T18:04:35.418Z,16.85
2023-04-09T18:07:02.967Z,16.60
2023-04-09T18:09:29.670Z,16.70
2023-04-09T18:11:57.780Z,16.15
2023-04-09T18:14:24.824Z,16.90
2023-04-09T18:16:51.796Z,16.23
2023-04-09T18:19:18.582Z,16.83
2023-04-09T18:21:45.302Z,16.63
2023-04-09T18:24:11.966Z,15.98
2023-04-09T18:26:38.741Z,17.77
2023-04-09T18:29:05.981Z,18.13
2023-04-09T18:31:32.970Z,16.40
2023-04-09T18:33:59.661Z,16.20
2023-04-09T18:36:28.199Z,17.35
2023-04-09T18:38:55.797Z,16.48
2023-04-09T18:41:26.808Z,17.25
2023-04-09T18:43:54.188Z,17.23
2023-04-09T18:46:20.971Z,16.95
2023-04-09T18:48:47.752Z,17.02
2023-04-09T18:51:14.853Z,17.63
2023-04-09T18:53:42.102Z,16.70
2023-04-09T18:56:09.342Z,16.63
2023-04-09T18:58:36.359Z,16.13
2023-04-09T19:01:11.197Z,16.63
2023-04-09T19:03:38.856Z,16.02
2023-04-09T19:06:17.932Z,16.15
2023-04-09T19:08:46.127Z,16.67
2023-04-09T19:11:13.880Z,17.00
2023-04-09T19:13:40.810Z,17.42
2023-04-09T19:16:09.372Z,16.10
2023-04-09T19:18:37.313Z,16.88
2023-04-09T19:21:05.265Z,16.15
2023-04-09T19:23:34.202Z,17.60
2023-04-09T19:26:01.790Z,17.23
2023-04-09T19:28:28.867Z,18.13
2023-04-09T19:30:55.698Z,17.75
2023-04-09T19:33:26.937Z,17.00
2023-04-09T19:35:55.886Z,17.50
2023-04-09T19:38:22.880Z,16.13
2023-04-09T19:40:49.669Z,17.50
2023-04-09T19:43:16.485Z,16.35
2023-04-09T19:45:43.538Z,16.88
2023-04-09T19:48:10.516Z,16.60
2023-04-09T19:50:38.783Z,17.33
2023-04-09T19:53:05.986Z,16.38
2023-04-09T19:55:33.831Z,18.65
2023-04-09T19:58:00.888Z,16.95
2023-04-09T20:00:28.249Z,16.85
2023-04-09T20:02:55.736Z,17.45
2023-04-09T20:05:22.883Z,17.42
2023-04-09T20:07:50.737Z,16.70
2023-04-09T20:10:17.529Z,16.98
2023-04-09T20:12:51.142Z,17.00
2023-04-09T20:15:20.194Z,16.65
2023-04-09T20:17:51.080Z,15.80
2023-04-09T20:20:19.779Z,16.58
2023-04-09T20:22:55.651Z,16.48
2023-04-09T20:25:23.544Z,16.23
2023-04-09T20:27:52.818Z,15.80
2023-04-09T20:30:19.743Z,16.52
2023-04-09T20:32:47.407Z,16.17
2023-04-09T20:35:14.543Z,16.17
2023-04-09T20:37:41.230Z,15.75
2023-04-09T20:40:08.445Z,16.30
2023-04-09T20:42:35.490Z,16.50
2023-04-09T20:45:02.300Z,16.63
2023-04-09T20:47:29.158Z,16.13
2023-04-09T20:49:59.734Z,16.83
2023-04-09T20:52:28.501Z,15.85
2023-04-09T20:54:56.871Z,16.05
2023-04-09T20:57:23.838Z,16.70
2023-04-09T20:59:50.811Z,16.55
2023-04-09T21:02:17.824Z,16.00
2023-04-09T21:04:44.744Z,16.20
2023-04-09T21:07:11.607Z,16.45
2023-04-09T21:09:38.484Z,15.68
2023-04-09T21:12:06.104Z,15.68
2023-04-09T21:14:32.905Z,14.98
2023-04-09T21:16:59.753Z,14.80
2023-04-09T21:19:26.594Z,15.95
2023-04-09T21:21:53.299Z,15.82
2023-04-09T21:24:20.106Z,15.43
2023-04-09T21:26:51.564Z,15.13
2023-04-09T21:29:20.357Z,16.23
2023-04-09T21:31:48.511Z,16.63
2023-04-09T21:34:15.922Z,16.33
2023-04-09T21:36:44.682Z,15.45
2023-04-09T21:39:11.621Z,15.15
2023-04-09T21:41:39.120Z,16.15
2023-04-09T21:44:08.502Z,15.25
2023-04-09T21:46:40.510Z,15.05
2023-04-09T21:49:08.020Z,16.60
2023-04-09T21:51:34.769Z,15.98
2023-04-09T21:54:08.442Z,14.95
2023-04-09T21:56:36.035Z,14.48
2023-04-09T21:59:03.081Z,15.20
2023-04-09T22:01:31.355Z,14.65
2023-04-09T22:03:59.602Z,14.73
2023-04-09T22:06:27.302Z,15.00
2023-04-09T22:08:56.732Z,14.93
2023-04-09T22:11:26.804Z,14.98
2023-04-09T22:13:53.786Z,14.88
2023-04-09T22:16:20.601Z,14.73
2023-04-09T22:18:47.443Z,15.85
2023-04-09T22:21:16.274Z,13.95
2023-04-09T22:23:43.489Z,14.35
2023-04-09T22:26:10.200Z,14.98
2023-04-09T22:28:36.914Z,14.65
2023-04-09T22:31:03.905Z,14.68
2023-04-09T22:33:30.723Z,15.50
2023-04-09T22:35:58.831Z,14.93
2023-04-09T22:38:26.056Z,14.35
2023-04-09T22:40:52.775Z,14.63
2023-04-09T22:43:19.723Z,14.77
2023-04-09T22:45:51.957Z,14.32
2023-04-09T22:48:19.296Z,15.07
2023-04-09T22:50:46.471Z,14.63
2023-04-09T22:53:18.789Z,13.88
2023-04-09T22:55:54.342Z,14.55
2023-04-09T22:58:21.144Z,14.98
2023-04-09T23:00:48.178Z,14.77
2023-04-09T23:03:15.266Z,13.82
2023-04-09T23:05:42.276Z,13.85
2023-04-09T23:08:09.727Z,13.82
2023-04-09T23:10:36.574Z,14.95
2023-04-09T23:13:03.610Z,14.35
2023-04-09T23:15:30.383Z,13.98
2023-04-09T23:17:57.226Z,14.13
2023-04-09T23:20:24.017Z,15.02
2023-04-09T23:22:51.090Z,14.57
2023-04-09T23:25:18.580Z,15.02
2023-04-09T23:27:46.529Z,14.18
2023-04-09T23:30:17.006Z,14.32
2023-04-09T23:32:48.089Z,14.27
2023-04-09T23:35:15.406Z,13.63
2023-04-09T23:37:42.594Z,13.45
2023-04-09T23:40:10.250Z,13.35
2023-04-09T23:42:36.990Z,12.88
2023-04-09T23:45:05.728Z,13.57
2023-04-09T23:47:34.640Z,12.88
2023-04-09T23:50:04.847Z,13.55
2023-04-09T23:52:34.329Z,12.98
2023-04-09T23:55:01.438Z,12.75
2023-04-09T23:57:28.793Z,13.30
2023-04-09T23:59:56.037Z,12.57
